createdAt,value
2023-04-09T00:00:17.968Z,5.49
2023-04-09T00:02:45.282Z,5.46
2023-04-09T00:05:12.363Z,5.42
2023-04-09T00:07:43.250Z,5.41
2023-04-09T00:10:12.662Z,5.42
2023-04-09T00:12:39.725Z,5.42
2023-04-09T00:15:09.635Z,5.45
2023-04-09T00:17:42.336Z,5.48
2023-04-09T00:20:12.119Z,5.54
2023-04-09T00:22:39.193Z,5.54
2023-04-09T00:25:06.827Z,5.56
2023-04-09T00:27:33.792Z,5.52
2023-04-09T00:30:01.133Z,5.50
2023-04-09T00:32:28.357Z,5.49
2023-04-09T00:34:55.772Z,5.46
2023-04-09T00:37:22.729Z,5.50
2023-04-09T00:39:50.857Z,5.46
2023-04-09T00:42:18.202Z,5.41
2023-04-09T00:44:45.304Z,5.38
2023-04-09T00:47:12.475Z,5.38
2023-04-09T00:49:39.443Z,5.38
2023-04-09T00:52:06.949Z,5.40
2023-04-09T00:54:34.094Z,5.37
2023-04-09T00:57:01.875Z,5.32
2023-04-09T00:59:31.470Z,5.30
2023-04-09T01:01:58.551Z,5.32
2023-04-09T01:04:27.840Z,5.27
2023-04-09T01:07:21.217Z,5.28
2023-04-09T01:09:56.243Z,5.27
2023-04-09T01:12:33.687Z,5.29
2023-04-09T01:15:07.749Z,5.32
2023-04-09T01:17:53.611Z,5.31
2023-04-09T01:20:39.817Z,5.28
2023-04-09T01:23:09.652Z,5.27
2023-04-09T01:26:07.926Z,5.30
2023-04-09T01:28:47.619Z,5.22
2023-04-09T01:31:18.220Z,5.20
2023-04-09T01:33:45.947Z,5.17
2023-04-09T01:36:15.576Z,5.19
2023-04-09T01:38:43.488Z,5.20
2023-04-09T01:41:15.510Z,5.22
2023-04-09T01:43:42.991Z,5.21
2023-04-09T01:46:11.364Z,5.24
2023-04-09T01:48:38.636Z,5.22
2023-04-09T01:51:06.053Z,5.25
2023-04-09T01:53:33.076Z,5.26
2023-04-09T01:56:01.457Z,5.28
2023-04-09T01:58:28.948Z,5.26
2023-04-09T02:01:03.818Z,5.22
2023-04-09T02:03:37.401Z,5.21
2023-04-09T02:06:22.937Z,5.15
2023-04-09T02:08:51.752Z,5.17
2023-04-09T02:11:19.266Z,5.21
2023-04-09T02:13:46.543Z,5.24
2023-04-09T02:16:34.145Z,5.21
2023-04-09T02:19:03.934Z,5.21
2023-04-09T02:21:31.870Z,5.17
2023-04-09T02:23:58.764Z,5.14
2023-04-09T02:26:26.099Z,5.11
2023-04-09T02:28:53.272Z,5.09
2023-04-09T02:31:20.701Z,5.03
2023-04-09T02:33:51.207Z,5.00
2023-04-09T02:36:18.157Z,4.90
2023-04-09T02:38:45.644Z,4.89
2023-04-09T02:41:15.312Z,4.86
2023-04-09T02:43:42.217Z,4.81
2023-04-09T02:46:09.283Z,4.72
2023-04-09T02:48:39.331Z,4.70
2023-04-09T02:51:07.388Z,4.65
2023-04-09T02:53:34.371Z,4.63
2023-04-09T02:56:01.437Z,4.61
2023-04-09T02:58:28.620Z,4.65
2023-04-09T03:00:55.845Z,4.64
2023-04-09T03:03:22.951Z,4.66
2023-04-09T03:05:50.387Z,4.62
2023-04-09T03:08:17.432Z,4.61
2023-04-09T03:10:44.635Z,4.55
2023-04-09T03:13:11.524Z,4.50
2023-04-09T03:15:38.978Z,4.48
2023-04-09T03:18:08.875Z,4.50
2023-04-09T03:20:39.583Z,4.51
2023-04-09T03:23:09.247Z,4.48
2023-04-09T03:25:41.254Z,4.48
2023-04-09T03:28:16.781Z,4.48
2023-04-09T03:30:53.595Z,4.48
2023-04-09T03:33:20.703Z,4.53
2023-04-09T03:35:54.290Z,4.57
2023-04-09T03:38:35.155Z,4.56
2023-04-09T03:41:07.730Z,4.57
2023-04-09T03:43:34.810Z,4.60
2023-04-09T03:46:01.767Z,4.62
2023-04-09T03:48:28.740Z,4.66
2023-04-09T03:50:57.479Z,4.70
2023-04-09T03:53:32.263Z,4.73
2023-04-09T03:56:03.797Z,4.72
2023-04-09T03:58:34.025Z,4.75
2023-04-09T04:01:03.430Z,4.81
2023-04-09T04:03:41.442Z,4.84
2023-04-09T04:06:25.869Z,4.88
2023-04-09T04:09:04.291Z,4.94
2023-04-09T04:11:42.514Z,5.02
2023-04-09T04:14:14.090Z,5.08
2023-04-09T04:16:46.954Z,5.15
2023-04-09T04:19:18.436Z,5.21
2023-04-09T04:21:48.617Z,5.28
2023-04-09T04:24:16.264Z,5.33
2023-04-09T04:26:45.556Z,5.40
2023-04-09T04:29:17.135Z,5.47
2023-04-09T04:31:51.074Z,5.52
2023-04-09T04:34:21.344Z,5.61
2023-04-09T04:36:59.180Z,5.74
2023-04-09T04:39:31.845Z,5.85
2023-04-09T04:42:07.119Z,5.94
2023-04-09T04:44:34.562Z,6.04
2023-04-09T04:47:20.028Z,6.13
2023-04-09T04:49:47.038Z,6.16
2023-04-09T04:52:17.877Z,6.25
2023-04-09T04:54:49.525Z,6.32
2023-04-09T04:57:21.325Z,6.36
2023-04-09T04:59:48.870Z,6.50
2023-04-09T05:02:17.741Z,6.53
2023-04-09T05:05:05.366Z,6.62
2023-04-09T05:07:37.920Z,6.72
2023-04-09T05:10:07.150Z,6.88
2023-04-09T05:12:39.288Z,7.12
2023-04-09T05:15:10.818Z,7.26
2023-04-09T05:17:38.875Z,7.42
2023-04-09T05:20:08.030Z,7.62
2023-04-09T05:22:52.495Z,7.80
2023-04-09T05:25:26.447Z,7.90
2023-04-09T05:27:53.491Z,7.91
2023-04-09T05:30:21.290Z,7.98
2023-04-09T05:32:48.474Z,7.77
2023-04-09T05:35:17.813Z,7.86
2023-04-09T05:37:45.488Z,7.93
2023-04-09T05:40:13.240Z,8.02
2023-04-09T05:42:40.665Z,8.12
2023-04-09T05:45:16.151Z,8.13
2023-04-09T05:47:49.777Z,8.48
2023-04-09T05:50:20.933Z,8.70
2023-04-09T05:53:13.102Z,8.83
2023-04-09T05:55:41.772Z,9.23
2023-04-09T05:58:08.779Z,9.51
2023-04-09T06:00:35.956Z,9.73
2023-04-09T06:03:06.503Z,10.09
2023-04-09T06:05:36.069Z,9.99
2023-04-09T06:08:03.810Z,10.05
2023-04-09T06:10:37.659Z,9.91
2023-04-09T06:13:04.849Z,9.98
2023-04-09T06:15:32.078Z,10.01
2023-04-09T06:18:00.011Z,10.35
2023-04-09T06:20:27.111Z,10.48
2023-04-09T06:22:56.569Z,10.30
2023-04-09T06:25:24.497Z,10.17
2023-04-09T06:27:55.141Z,10.03
2023-04-09T06:30:23.186Z,9.94
2023-04-09T06:32:54.810Z,9.74
2023-04-09T06:35:22.941Z,9.53
2023-04-09T06:37:50.604Z,9.75
2023-04-09T06:40:22.917Z,9.93
2023-04-09T06:42:50.540Z,10.23
2023-04-09T06:45:32.748Z,10.55
2023-04-09T06:48:00.777Z,10.47
2023-04-09T06:50:27.940Z,10.38
2023-04-09T06:52:55.562Z,10.67
2023-04-09T06:55:25.743Z,10.90
2023-04-09T06:57:54.379Z,10.96
2023-04-09T07:00:23.377Z,11.10
2023-04-09T07:02:51.932Z,11.42
2023-04-09T07:05:19.349Z,11.74
2023-04-09T07:07:49.244Z,11.89
2023-04-09T07:10:16.441Z,12.03
2023-04-09T07:12:43.529Z,12.30
2023-04-09T07:15:10.672Z,12.42
2023-04-09T07:17:40.898Z,12.13
2023-04-09T07:20:11.080Z,11.99
2023-04-09T07:22:38.302Z,12.01
2023-04-09T07:25:07.092Z,11.97
2023-04-09T07:27:34.105Z,11.90
2023-04-09T07:30:03.477Z,11.89
2023-04-09T07:32:31.105Z,11.97
2023-04-09T07:34:59.454Z,12.17
2023-04-09T07:37:27.865Z,12.39
2023-04-09T07:39:57.330Z,12.52
2023-04-09T07:42:49.812Z,12.70
2023-04-09T07:45:19.878Z,12.65
2023-04-09T07:47:47.832Z,12.66
2023-04-09T07:50:19.030Z,13.36
2023-04-09T07:52:46.457Z,13.21
2023-04-09T07:55:16.762Z,13.15
2023-04-09T07:57:45.384Z,13.14
2023-04-09T08:00:12.947Z,13.09
2023-04-09T08:02:40.966Z,13.08
2023-04-09T08:05:11.790Z,12.76
2023-04-09T08:07:58.607Z,12.61
2023-04-09T08:10:28.148Z,12.50
2023-04-09T08:12:57.919Z,12.43
2023-04-09T08:15:25.022Z,12.72
2023-04-09T08:17:52.534Z,12.77
2023-04-09T08:20:19.581Z,12.75
2023-04-09T08:22:47.010Z,12.96
2023-04-09T08:25:14.017Z,13.14
2023-04-09T08:27:41.041Z,13.43
2023-04-09T08:30:08.690Z,13.43
2023-04-09T08:32:54.616Z,13.63
2023-04-09T08:35:26.038Z,13.88
2023-04-09T08:37:56.360Z,14.01
2023-04-09T08:40:23.674Z,14.10
2023-04-09T08:42:55.382Z,14.20
2023-04-09T08:45:22.791Z,14.46
2023-04-09T08:47:51.628Z,14.97
2023-04-09T08:50:18.880Z,14.99
2023-04-09T08:52:50.296Z,14.75
2023-04-09T08:55:17.408Z,14.79
2023-04-09T08:58:05.919Z,15.03
2023-04-09T09:00:33.121Z,15.10
2023-04-09T09:03:16.455Z,15.27
2023-04-09T09:05:47.973Z,15.64
2023-04-09T09:08:26.448Z,15.68
2023-04-09T09:10:54.308Z,15.19
2023-04-09T09:13:26.441Z,15.67
2023-04-09T09:15:56.494Z,16.06
2023-04-09T09:18:40.510Z,16.82
2023-04-09T09:21:15.772Z,16.51
2023-04-09T09:23:42.925Z,16.58
2023-04-09T09:26:21.841Z,17.39
2023-04-09T09:28:49.729Z,17.90
2023-04-09T09:31:18.326Z,17.97
2023-04-09T09:33:46.846Z,18.33
2023-04-09T09:36:16.902Z,18.62
2023-04-09T09:38:56.893Z,19.20
2023-04-09T09:41:26.026Z,19.23
2023-04-09T09:43:53.473Z,18.15
2023-04-09T09:46:22.486Z,18.56
2023-04-09T09:48:51.101Z,18.38
2023-04-09T09:51:18.533Z,19.15
2023-04-09T09:53:49.121Z,19.38
2023-04-09T09:56:23.726Z,19.62
2023-04-09T09:59:02.594Z,20.21
2023-04-09T10:01:29.995Z,20.62
2023-04-09T10:04:03.306Z,20.84
2023-04-09T10:06:48.760Z,20.64
2023-04-09T10:09:17.016Z,21.11
2023-04-09T10:11:47.954Z,21.55
2023-04-09T10:14:17.326Z,21.94
2023-04-09T10:16:53.437Z,22.02
2023-04-09T10:19:22.910Z,21.64
2023-04-09T10:22:19.105Z,21.55
2023-04-09T10:24:47.313Z,20.78
2023-04-09T10:27:17.674Z,21.85
2023-04-09T10:29:49.160Z,21.90
2023-04-09T10:32:23.871Z,19.51
2023-04-09T10:34:52.801Z,20.53
2023-04-09T10:37:24.548Z,21.27
2023-04-09T10:39:52.638Z,22.24
2023-04-09T10:42:58.032Z,22.20
2023-04-09T10:45:26.745Z,22.56
2023-04-09T10:47:53.731Z,23.09
2023-04-09T10:50:39.385Z,23.17
2023-04-09T10:53:06.462Z,23.73
2023-04-09T10:55:38.418Z,24.06
2023-04-09T10:58:12.208Z,24.32
2023-04-09T11:00:47.310Z,24.32
2023-04-09T11:03:36.255Z,24.37
2023-04-09T11:06:09.475Z,24.84
2023-04-09T11:08:38.507Z,24.38
2023-04-09T11:11:08.534Z,23.03
2023-04-09T11:13:35.710Z,20.68
2023-04-09T11:16:24.335Z,19.54
2023-04-09T11:18:54.221Z,18.16
2023-04-09T11:21:21.313Z,17.60
2023-04-09T11:23:55.207Z,17.44
2023-04-09T11:26:35.992Z,17.01
2023-04-09T11:29:09.529Z,16.72
2023-04-09T11:31:37.257Z,16.72
2023-04-09T11:34:04.392Z,16.50
2023-04-09T11:36:34.843Z,16.38
2023-04-09T11:39:02.760Z,15.99
2023-04-09T11:41:36.508Z,15.36
2023-04-09T11:44:08.356Z,15.04
2023-04-09T11:46:39.258Z,14.63
2023-04-09T11:49:07.239Z,14.59
2023-04-09T11:51:35.629Z,14.55
2023-04-09T11:54:03.686Z,14.73
2023-04-09T11:56:31.404Z,14.60
2023-04-09T11:59:19.240Z,14.62
2023-04-09T12:01:50.132Z,14.54
2023-04-09T12:04:39.397Z,14.60
2023-04-09T12:07:09.776Z,14.51
2023-04-09T12:09:47.980Z,14.66
2023-04-09T12:12:19.711Z,14.40
2023-04-09T12:14:47.763Z,14.48
2023-04-09T12:17:15.047Z,14.82
2023-04-09T12:19:42.022Z,15.25
2023-04-09T12:22:27.708Z,15.48
2023-04-09T12:25:13.227Z,16.02
2023-04-09T12:27:40.417Z,18.65
2023-04-09T12:30:11.194Z,19.72
2023-04-09T12:32:40.485Z,20.91
2023-04-09T12:35:08.657Z,22.80
2023-04-09T12:37:35.674Z,23.86
2023-04-09T12:40:03.786Z,24.69
2023-04-09T12:42:31.158Z,25.11
2023-04-09T12:45:00.070Z,23.26
2023-04-09T12:47:27.682Z,21.20
2023-04-09T12:49:54.929Z,19.17
2023-04-09T12:52:23.667Z,19.33
2023-04-09T12:54:54.008Z,19.37
2023-04-09T12:57:22.571Z,18.54
2023-04-09T13:00:09.199Z,17.63
2023-04-09T13:02:36.602Z,17.39
2023-04-09T13:05:04.662Z,18.80
2023-04-09T13:07:32.219Z,19.36
2023-04-09T13:09:59.226Z,19.92
2023-04-09T13:12:27.282Z,20.14
2023-04-09T13:14:55.688Z,20.52
2023-04-09T13:17:25.981Z,19.48
2023-04-09T13:19:53.720Z,18.74
2023-04-09T13:22:20.938Z,18.18
2023-04-09T13:24:48.153Z,17.66
2023-04-09T13:27:15.067Z,16.99
2023-04-09T13:29:46.604Z,16.21
2023-04-09T13:32:13.909Z,15.93
2023-04-09T13:34:41.128Z,15.87
2023-04-09T13:37:10.689Z,15.45
2023-04-09T13:39:37.740Z,14.86
2023-04-09T13:42:12.749Z,14.58
2023-04-09T13:44:42.593Z,14.32
2023-04-09T13:47:11.398Z,14.12
2023-04-09T13:49:38.760Z,13.98
2023-04-09T13:52:13.644Z,13.92
2023-04-09T13:54:41.267Z,13.95
2023-04-09T13:57:08.374Z,13.75
2023-04-09T13:59:36.287Z,13.64
2023-04-09T14:02:03.423Z,13.59
2023-04-09T14:04:33.661Z,13.57
2023-04-09T14:07:03.547Z,13.54
2023-04-09T14:09:30.713Z,13.49
2023-04-09T14:11:57.928Z,13.33
2023-04-09T14:14:25.033Z,13.33
2023-04-09T14:16:52.113Z,13.55
2023-04-09T14:19:23.325Z,13.54
2023-04-09T14:21:53.472Z,13.32
2023-04-09T14:24:23.119Z,13.39
2023-04-09T14:26:53.463Z,13.51
2023-04-09T14:29:21.676Z,13.47
2023-04-09T14:31:48.833Z,13.41
2023-04-09T14:34:16.936Z,13.22
2023-04-09T14:36:44.279Z,13.18
2023-04-09T14:39:11.812Z,13.31
2023-04-09T14:41:38.850Z,13.31
2023-04-09T14:44:06.193Z,13.21
2023-04-09T14:46:35.082Z,13.15
2023-04-09T14:49:03.315Z,13.24
2023-04-09T14:51:33.121Z,13.28
2023-04-09T14:54:01.698Z,13.31
2023-04-09T14:56:34.133Z,13.40
2023-04-09T14:59:01.260Z,13.12
2023-04-09T15:01:28.475Z,12.99
2023-04-09T15:03:55.947Z,12.95
2023-04-09T15:06:23.099Z,12.96
2023-04-09T15:08:50.365Z,12.83
2023-04-09T15:11:22.878Z,12.89
2023-04-09T15:13:49.949Z,12.82
2023-04-09T15:16:28.658Z,12.88
2023-04-09T15:19:02.774Z,12.80
2023-04-09T15:21:36.317Z,12.92
2023-04-09T15:24:03.878Z,12.93
2023-04-09T15:26:34.484Z,12.90
2023-04-09T15:29:04.305Z,12.86
2023-04-09T15:31:35.362Z,12.71
2023-04-09T15:34:04.486Z,12.73
2023-04-09T15:36:33.187Z,12.69
2023-04-09T15:39:04.884Z,12.66
2023-04-09T15:41:32.430Z,12.70
2023-04-09T15:43:59.882Z,12.73
2023-04-09T15:46:26.914Z,12.72
2023-04-09T15:48:57.125Z,12.79
2023-04-09T15:51:27.313Z,12.68
2023-04-09T15:53:54.443Z,12.72
2023-04-09T15:56:23.931Z,12.63
2023-04-09T15:58:54.334Z,12.56
2023-04-09T16:01:21.598Z,12.51
2023-04-09T16:03:52.348Z,12.42
2023-04-09T16:06:19.611Z,12.28
2023-04-09T16:08:46.764Z,12.13
2023-04-09T16:11:13.733Z,11.98
2023-04-09T16:13:43.643Z,11.85
2023-04-09T16:16:10.760Z,11.66
2023-04-09T16:18:37.799Z,11.54
2023-04-09T16:21:05.798Z,11.32
2023-04-09T16:23:33.177Z,11.25
2023-04-09T16:26:03.058Z,11.06
2023-04-09T16:28:30.309Z,11.04
2023-04-09T16:31:01.142Z,10.96
2023-04-09T16:33:28.328Z,10.79
2023-04-09T16:35:58.127Z,10.71
2023-04-09T16:38:27.602Z,10.68
2023-04-09T16:40:57.042Z,10.60
2023-04-09T16:43:29.229Z,10.51
2023-04-09T16:45:56.559Z,10.34
2023-04-09T16:48:25.590Z,10.24
2023-04-09T16:50:52.858Z,10.21
2023-04-09T16:53:22.573Z,10.06
2023-04-09T16:55:50.159Z,9.99
2023-04-09T16:58:17.236Z,10.02
2023-04-09T17:00:46.729Z,9.96
2023-04-09T17:03:14.911Z,9.95
2023-04-09T17:05:42.076Z,9.85
2023-04-09T17:08:09.042Z,9.75
2023-04-09T17:10:36.973Z,9.69
2023-04-09T17:13:05.905Z,9.72
2023-04-09T17:15:33.324Z,9.65
2023-04-09T17:18:00.673Z,9.62
2023-04-09T17:20:29.819Z,9.52
2023-04-09T17:22:56.929Z,9.66
2023-04-09T17:25:24.562Z,9.65
2023-04-09T17:27:51.839Z,9.62
2023-04-09T17:30:18.961Z,9.65
2023-04-09T17:32:51.260Z,9.55
2023-04-09T17:35:18.468Z,9.60
2023-04-09T17:37:46.745Z,9.49
2023-04-09T17:40:18.590Z,9.42
2023-04-09T17:42:46.308Z,9.24
2023-04-09T17:45:17.344Z,9.28
2023-04-09T17:47:45.931Z,9.15
2023-04-09T17:50:13.118Z,9.06
2023-04-09T17:52:40.750Z,9.08
2023-04-09T17:55:08.453Z,9.02
2023-04-09T17:57:36.080Z,8.84
2023-04-09T18:00:04.435Z,8.85
2023-04-09T18:02:35.994Z,8.78
2023-04-09T18:05:16.615Z,8.66
2023-04-09T18:07:43.784Z,8.64
2023-04-09T18:10:11.805Z,8.67
2023-04-09T18:12:39.352Z,8.70
2023-04-09T18:15:07.021Z,8.86
2023-04-09T18:17:37.769Z,8.93
2023-04-09T18:20:05.098Z,8.93
2023-04-09T18:22:35.293Z,8.86
2023-04-09T18:25:04.850Z,8.79
2023-04-09T18:27:32.183Z,8.68
2023-04-09T18:29:59.539Z,8.62
2023-04-09T18:32:26.942Z,8.59
2023-04-09T18:34:54.167Z,8.43
2023-04-09T18:37:21.555Z,8.44
2023-04-09T18:39:48.701Z,8.45
2023-04-09T18:42:15.679Z,8.42
2023-04-09T18:44:42.871Z,8.40
2023-04-09T18:47:12.899Z,8.32
2023-04-09T18:49:39.942Z,8.17
2023-04-09T18:52:09.361Z,8.20
2023-04-09T18:54:37.357Z,8.25
2023-04-09T18:57:11.974Z,8.23
2023-04-09T18:59:41.414Z,8.18
2023-04-09T19:02:09.314Z,8.13
2023-04-09T19:04:40.563Z,8.17
2023-04-09T19:07:08.202Z,8.06
2023-04-09T19:09:37.230Z,8.05
2023-04-09T19:12:04.865Z,8.08
2023-04-09T19:14:32.122Z,8.00
2023-04-09T19:16:59.901Z,7.96
2023-04-09T19:19:28.429Z,7.97
2023-04-09T19:21:55.441Z,7.99
2023-04-09T19:24:23.687Z,7.94
2023-04-09T19:26:53.469Z,7.96
2023-04-09T19:29:20.624Z,7.94
2023-04-09T19:31:47.735Z,7.94
2023-04-09T19:34:15.778Z,7.90
2023-04-09T19:36:42.956Z,7.94
2023-04-09T19:39:11.164Z,7.93
2023-04-09T19:41:38.271Z,7.85
2023-04-09T19:44:07.466Z,7.85
2023-04-09T19:46:35.006Z,7.81
2023-04-09T19:49:04.942Z,7.75
2023-04-09T19:51:32.663Z,7.71
2023-04-09T19:54:00.026Z,7.74
2023-04-09T19:56:27.166Z,7.70
2023-04-09T19:58:54.330Z,7.66
2023-04-09T20:01:23.167Z,7.58
2023-04-09T20:03:50.394Z,7.52
2023-04-09T20:06:18.306Z,7.49
2023-04-09T20:08:45.288Z,7.45
2023-04-09T20:11:19.121Z,7.38
2023-04-09T20:13:47.992Z,7.30
2023-04-09T20:16:15.695Z,7.28
2023-04-09T20:18:45.571Z,7.23
2023-04-09T20:21:14.666Z,7.20
2023-04-09T20:23:42.294Z,7.20
2023-04-09T20:26:11.156Z,7.15
2023-04-09T20:28:38.193Z,7.33
2023-04-09T20:31:06.238Z,7.30
2023-04-09T20:33:42.940Z,7.20
2023-04-09T20:36:19.819Z,7.22
2023-04-09T20:38:48.261Z,7.14
2023-04-09T20:41:16.073Z,7.09
2023-04-09T20:43:46.179Z,7.07
2023-04-09T20:46:13.899Z,7.11
2023-04-09T20:48:41.709Z,7.04
2023-04-09T20:51:13.587Z,6.91
2023-04-09T20:53:40.674Z,6.83
2023-04-09T20:56:11.971Z,6.64
2023-04-09T20:58:39.107Z,6.60
2023-04-09T21:01:10.029Z,6.47
2023-04-09T21:03:38.630Z,6.52
2023-04-09T21:06:06.926Z,6.47
2023-04-09T21:08:34.467Z,6.38
2023-04-09T21:11:02.243Z,6.34
2023-04-09T21:13:29.546Z,6.41
2023-04-09T21:15:57.587Z,6.46
2023-04-09T21:18:25.144Z,6.42
2023-04-09T21:20:52.226Z,6.37
2023-04-09T21:23:21.692Z,6.37
2023-04-09T21:25:54.884Z,6.37
2023-04-09T21:28:21.863Z,6.45
2023-04-09T21:30:49.448Z,6.54
2023-04-09T21:33:16.365Z,6.61
2023-04-09T21:35:43.488Z,6.65
2023-04-09T21:38:10.610Z,6.69
2023-04-09T21:40:40.423Z,6.77
2023-04-09T21:43:08.854Z,6.86
2023-04-09T21:45:35.843Z,6.89
2023-04-09T21:48:03.208Z,6.80
2023-04-09T21:50:34.181Z,6.96
2023-04-09T21:53:01.203Z,6.97
2023-04-09T21:55:28.348Z,7.01
2023-04-09T21:57:56.271Z,7.02
2023-04-09T22:00:23.477Z,7.04
2023-04-09T22:02:50.982Z,7.02
2023-04-09T22:05:18.064Z,6.98
2023-04-09T22:07:45.373Z,6.98
2023-04-09T22:10:12.325Z,7.00
2023-04-09T22:12:39.222Z,7.04
2023-04-09T22:15:32.283Z,7.06
2023-04-09T22:18:00.385Z,7.10
2023-04-09T22:20:27.905Z,7.09
2023-04-09T22:22:55.082Z,7.08
2023-04-09T22:25:22.383Z,7.05
2023-04-09T22:27:53.212Z,7.03
2023-04-09T22:30:22.176Z,7.00
2023-04-09T22:32:52.269Z,6.91
2023-04-09T22:35:19.312Z,6.90
2023-04-09T22:37:47.220Z,6.90
2023-04-09T22:40:16.172Z,6.89
2023-04-09T22:42:44.178Z,6.89
2023-04-09T22:45:11.839Z,6.88
2023-04-09T22:47:40.991Z,6.90
2023-04-09T22:50:08.816Z,6.93
2023-04-09T22:52:36.063Z,6.94
2023-04-09T22:55:10.244Z,6.91
2023-04-09T22:57:41.082Z,6.91
2023-04-09T23:00:09.189Z,6.88
2023-04-09T23:02:37.147Z,6.88
2023-04-09T23:05:04.494Z,6.87
2023-04-09T23:07:31.393Z,6.86
2023-04-09T23:09:58.323Z,6.84
2023-04-09T23:12:25.216Z,6.84
2023-04-09T23:14:53.685Z,6.87
2023-04-09T23:17:22.777Z,6.85
2023-04-09T23:19:50.484Z,6.84
2023-04-09T23:22:17.352Z,6.86
2023-04-09T23:24:44.324Z,6.87
2023-04-09T23:27:11.374Z,6.88
2023-04-09T23:29:38.485Z,6.90
2023-04-09T23:32:05.796Z,6.90
2023-04-09T23:34:32.835Z,6.91
2023-04-09T23:37:02.674Z,6.94
2023-04-09T23:39:29.718Z,6.93
2023-04-09T23:41:57.972Z,6.92
2023-04-09T23:44:24.820Z,6.88
2023-04-09T23:46:51.835Z,6.84
2023-04-09T23:49:19.084Z,6.78
2023-04-09T23:51:46.041Z,6.75
2023-04-09T23:54:12.982Z,6.69
2023-04-09T23:56:42.456Z,6.61
2023-04-09T23:59:13.698Z,6.60
